Greenwood, California
Current Conditions -  °F | °C
As of 8:35 AM on Friday 19 Dec 2014 (Local Time) from KAUN Reporting Station
Overcast Overcast  
Wind Chill: 44°   Ceiling: 3100
Heat Index: 48°   Visibility: 3mi
Dew Point: 43°   Wind: 10mph
Humidity: 82%   Direction: 130°SE
Pressure: 30.13"   Gusts: 16mph
Location:  38.9°N, 120.91°W
Report Text: KAUN 191635Z AUTO 13009G14KT 3SM FEW022 OVC031 09/06 A3013 RMK AO1 P0002
Loading
Personal Weather Stations






























Interactive Weather Map New forecast layout! Learn more

10-Day Weather Forecast

Advertisements
Track Severe Weather on mobile